Tiempo atmosférico en la estación meteorológica de La Póveda de Soria, Barriomartín, Soria (1260 m.)



Fecha
DESCASC
Temp. máxima en grados centígrados (hora)
DESCASC
Temp. mínima en grados centígrados (hora)
DESCASC
Temp. media en grados centígrados
DESCASC
Racha de viento máxima en m/sg (hora)
DESCASC
Velocidad máxima media en intervalos de 10 minutos(hora)
DESCASC
Precipitaciones diarias en mm
DESCASC
Precipitaciones de 00:00 a 06:00 en mm
DESCASC
Precipitaciones de 06:00 a 12:00 en mm
DESCASC
Precipitaciones de 12:00 a 18:00 en mm
DESCASC
Precipitaciones de 18:00 a 24:00 en mm
DESCASC
14-02-2019 12.2 (14:40) -2.1 (06:40) 5 7.22 (15:10) 4.72 (15:10) 0 0 0 0 0
13-02-2019 13.1 (14:50) -1.9 (05:30) 5.6 5.56 (14:30) 3.33 (14:30) 0 0 0 0 0
12-02-2019 11.3 (15:30) -3.9 (08:10) 3.7 8.61 (01:20) 5.28 (01:10) 0 0 0 0 0
11-02-2019 3.4 (13:10) -0.4 (05:30) 1.5 11.67 (02:20) 8.33 (02:50) 0 0 0 0 0
10-02-2019 9.6 (14:20) 1.4 (00:00) 5.5 14.44 (11:30) 7.22 (21:30) 0 0 0 0 0
09-02-2019 10.8 (14:40) -2 (-00:0) 4.4 10 (21:30) 3.89 (14:50) 0 0 0 0 0
08-02-2019 12.5 (15:00) -3.5 (-00:0) 4.5 11.39 (13:50) 5 (17:20) 0 0 0 0 0
07-02-2019 10.9 (15:40) -1.4 (-00:0) 4.7 7.78 (12:00) 4.44 (16:00) 0 0 0 0 0
06-02-2019 13.5 (15:50) -1.7 (07:30) 5.9 6.67 (16:00) 3.89 (16:00) 0 0 0 0 0
05-02-2019 10.6 (13:50) 0.3 (22:40) 5.5 7.22 (14:10) 4.44 (14:10) 0 0 0 0 0
04-02-2019 9.5 (13:30) -5.6 (-00:0) 2 11.94 (00:10) 7.78 (00:10) 4.8 0 4.4 0.4 0
03-02-2019 -0.3 (14:50) -4.3 (-00:0) -2.3 19.17 (10:50) 11.11 (10:40) 3 0 0 3 0
02-02-2019 -0.1 (00:10) -3.5 (-00:0) -1.8 26.94 (12:30) 17.78 (12:50) 0 0 0 0 0
01-02-2019 5.5 (00:00) -1.3 (-00:0) 2.1 18.33 (14:50) 7.78 (05:10) 12.6 8.6 0.8 3 0.2
31-01-2019 8.9 (12:40) -0.2 (00:00) 4.3 16.11 (19:10) 8.61 (20:00) 19.2 3 2.4 2 11.8
30-01-2019 5.1 (14:20) -1.2 (-00:0) 1.9 11.11 (17:40) 6.67 (17:40) 0 0 0 0 0
29-01-2019 7.1 (13:10) -2.3 (-00:0) 2.4 14.72 (14:00) 7.22 (14:20) 2 0 0 1.4 0.6
28-01-2019 4.8 (10:20) 0.4 (00:00) 2.6 22.22 (16:50) 13.33 (16:50) 1.2 0 0 1.2 0
27-01-2019 3.9 (13:10) -3.1 (-00:0) 0.4 21.39 (13:00) 13.61 (16:40) 0.2 0 0 0.2 0
26-01-2019 12.2 (14:40) -2.1 (-00:0) 5 15.83 (00:20) 11.39 (00:50) 0 0 0 0 0
25-01-2019 5.1 (14:40) 2.5 (00:00) 3.8 17.22 (04:10) 11.11 (23:40) 0.6 0.4 0.2 0 0
24-01-2019 3 (23:50) 0.2 (00:00) 1.6 19.17 (20:40) 10.83 (21:00) 16 4.6 6 5.2 0.2
23-01-2019 3.2 (11:00) 0.1 (00:00) 1.7 19.72 (21:40) 10.56 (21:40) 19 0.2 6.8 5 7
22-01-2019 1.7 (12:20) -2 (-00:0) -0.1 10.83 (02:40) 7.5 (02:30) 2.8 0 0 2.6 0.2
21-01-2019 0.5 (13:50) -1.7 (-00:0) -0.6 15.83 (16:00) 9.72 (15:40) 3 0 2 1 0
20-01-2019 2.5 (12:50) -1.1 (-00:0) 0.7 14.72 (20:40) 9.72 (20:30) 5.6 0 2.6 2.8 0.2
19-01-2019 1.6 (15:50) -5.1 (-00:0) -1.7 7.78 (16:00) 4.44 (16:00) 0.4 0 0.2 0.2 0

Gráficas

Temp. máximas Temp. mínimas Temp. medias Precipitaciones Rachas de viento máximas Velocidades máximas media en intervalos de 10 minutos

Datos horarios

Fecha y hora oficial Temperatura (ºC) Velocidad del viento (km/h) Dirección del viento Racha (km/h) Dirección de racha Precipitación (mm) Presión (hPa) Tendencia (hPa) Humedad (%)
2019-02-17 23:00:00 -1 9 Norte 13 Norte 0 -- -- 72
2019-02-17 22:00:00 -0.5 8 Norte 12 Norte 0 -- -- 69
2019-02-17 21:00:00 1 7 Norte 9 Norte 0 -- -- 59
2019-02-17 20:00:00 5 5 Sur 17 Sur 0 -- -- 43
2019-02-17 19:00:00 7.5 7 Sur 23 Sudoeste 0 -- -- 35
2019-02-17 18:00:00 10.6 15 Sur 31 Sur 0 -- -- 29
2019-02-17 17:00:00 11.8 17 Sur 30 Sur 0 -- -- 26
2019-02-17 16:00:00 11.5 18 Sur 32 Sudeste 0 -- -- 26
2019-02-17 15:00:00 11.9 12 Sur 23 Sur 0 -- -- 29
2019-02-17 14:00:00 10.9 13 Sur 25 Sur 0 -- -- 29
2019-02-17 13:00:00 10.1 14 Sur 26 Sudeste 0 -- -- 26
2019-02-17 12:00:00 9.6 13 Sudeste 26 Sur 0 -- -- 23
2019-02-17 11:00:00 8.9 11 Sudeste 17 Sur 0 -- -- 24
2019-02-17 10:00:00 6.7 4 Sudeste 8 Sudeste 0 -- -- 35
2019-02-17 09:00:00 -1.4 4 Norte 6 Nordeste 0 -- -- 71
2019-02-17 08:00:00 -3.9 3 Norte 8 Norte 0 -- -- 72
2019-02-17 07:00:00 -3.2 5 Norte 12 Norte 0 -- -- 69
2019-02-17 06:00:00 -3.4 8 Norte 10 Norte 0 -- -- 73
2019-02-17 05:00:00 -3.6 6 Norte 8 Norte 0 -- -- 73
2019-02-17 04:00:00 -2.5 4 Norte 10 Norte 0 -- -- 66
2019-02-17 03:00:00 -1.7 4 Norte 8 Noroeste 0 -- -- 65
2019-02-17 02:00:00 -1.2 2 Sudeste 5 Sudeste 0 -- -- 67
2019-02-17 01:00:00 -1 0 Calma 8 Sudeste 0 -- -- 75
2019-02-17 00:00:00 -0.5 2 Sur 8 Sudeste 0 -- -- 74
2019-02-16 23:00:00 1 6 Sur 15 Sur 0 -- -- 68
2019-02-16 22:00:00 2.7 12 Sudoeste 17 Sudoeste 0 -- -- 68
2019-02-16 21:00:00 3.3 6 Sudeste 14 Sudoeste 0 -- -- 67
2019-02-16 20:00:00 5.2 8 Sudoeste 18 Sudoeste 0 -- -- 59
2019-02-16 19:00:00 7.4 9 Sur 18 Sur 0 -- -- 48
2019-02-16 18:00:00 10.5 12 Sur 33 Sur 0 -- -- 41
2019-02-16 17:00:00 11.4 19 Sur 31 Sur 0 -- -- 43
2019-02-16 16:00:00 12 18 Sur 33 Sur 0 -- -- 37
2019-02-16 15:00:00 12.2 20 Sur 32 Sur 0 -- -- 34
2019-02-16 14:00:00 11.2 14 Sudeste 28 Sudeste 0 -- -- 48
2019-02-16 13:00:00 11 13 Sur 22 Sur 0 -- -- 51
2019-02-16 12:00:00 9.1 13 Sudeste 22 Sur 0 -- -- 61
2019-02-16 11:00:00 8.9 12 Sur 17 Sur 0 -- -- 62
2019-02-16 10:00:00 5.2 0 Calma 8 Norte 0 -- -- 77
2019-02-16 09:00:00 -0.1 5 Norte 10 Norte 0 -- -- 86
2019-02-16 08:00:00 -1.8 8 Norte 13 Norte 0 -- -- 86
2019-02-16 07:00:00 -2 8 Norte 10 Norte 0 -- -- 83
2019-02-16 06:00:00 -1.6 8 Norte 15 Norte 0 -- -- 75
2019-02-16 05:00:00 -1.4 7 Norte 15 Norte 0 -- -- 68
2019-02-16 04:00:00 -1.4 7 Norte 13 Norte 0 -- -- 69
2019-02-16 03:00:00 -0.8 8 Norte 13 Norte 0 -- -- 71
2019-02-16 02:00:00 -0.9 8 Norte 12 Norte 0 -- -- 77
2019-02-16 01:00:00 -0.4 8 Norte 12 Norte 0 -- -- 74
2019-02-16 00:00:00 0.4 5 Norte 12 Norte 0 -- -- 76
2019-02-15 23:00:00 1.8 6 Norte 13 Norte 0 -- -- 79
2019-02-15 22:00:00 2.6 10 Norte 14 Norte 0 -- -- 78
2019-02-15 21:00:00 2.8 6 Norte 14 Noroeste 0 -- -- 76
2019-02-15 20:00:00 3.8 9 Noroeste 13 Norte 0 -- -- 71
2019-02-15 19:00:00 5.8 6 Norte 11 Norte 0 -- -- 59
2019-02-15 18:00:00 12.8 6 Sur 13 Sur 0 -- -- 45
2019-02-15 17:00:00 13.8 5 Sur 13 Sudoeste 0 -- -- 33
2019-02-15 16:00:00 14.9 9 Sur 15 Sur 0 -- -- 27
2019-02-15 15:00:00 14.5 6 Sudeste 13 Sur 0 -- -- 32
2019-02-15 14:00:00 13 7 Sur 17 Sudeste 0 -- -- 32
2019-02-15 13:00:00 12.8 7 Sudeste 16 Sudeste 0 -- -- 32
2019-02-15 12:00:00 12.1 8 Sudeste 14 Sur 0 -- -- 37
2019-02-15 11:00:00 10.9 6 Sur 10 Sur 0 -- -- 37
2019-02-15 10:00:00 5.2 4 Norte 8 Norte 0 -- -- 55
2019-02-15 09:00:00 0.4 6 Norte 10 Norte 0 -- -- 66
2019-02-15 08:00:00 -1.5 6 Norte 10 Norte 0 -- -- 69
2019-02-15 07:00:00 -1.6 6 Norte 13 Norte 0 -- -- 73
2019-02-15 06:00:00 -1.9 7 Norte 10 Norte 0 -- -- 81
2019-02-15 05:00:00 -1.1 8 Norte 13 Norte 0 -- -- 82
2019-02-15 04:00:00 -1.2 7 Norte 14 Norte 0 -- -- 82
2019-02-15 03:00:00 -1.1 7 Norte 12 Norte 0 -- -- 79
2019-02-15 02:00:00 -1.5 8 Norte 11 Norte 0 -- -- 77
2019-02-15 01:00:00 -1.2 6 Norte 10 Norte 0 -- -- 75
2019-02-15 00:00:00 -0.9 7 Norte 11 Norte 0 -- -- 74
2019-02-14 23:00:00 -1 9 Norte 11 Norte 0 -- -- 76
2019-02-14 22:00:00 -0.4 6 Norte 9 Norte 0 -- -- 73
2019-02-14 21:00:00 0.9 4 Norte 10 Norte 0 -- -- 66
2019-02-14 20:00:00 2.4 0 Calma 6 Sur 0 -- -- 57
2019-02-14 19:00:00 6.6 4 Sudoeste 12 Sudoeste 0 -- -- 44
2019-02-14 18:00:00 10.7 8 Sur 23 Sur 0 -- -- 30
2019-02-14 17:00:00 11.4 12 Sur 24 Sur 0 -- -- 31
2019-02-14 16:00:00 12 14 Sur 26 Sur 0 -- -- 31
2019-02-14 15:00:00 12.2 13 Sur 23 Sur 0 -- -- 29
2019-02-14 14:00:00 11.8 11 Sur 25 Sur 0 -- -- 35
2019-02-14 13:00:00 10.7 15 Sur 22 Sur 0 -- -- 36
2019-02-14 12:00:00 9.7 12 Sur 19 Sudeste 0 -- -- 41
2019-02-14 11:00:00 7.6 9 Sur 15 Sudeste 0 -- -- 60
2019-02-14 10:00:00 4.2 3 Sudeste 9 Norte 0 -- -- 76
2019-02-14 09:00:00 -0.8 6 Norte 11 Norte 0 -- -- 87
2019-02-14 08:00:00 -2.1 7 Norte 10 Norte 0 -- -- 88
2019-02-14 07:00:00 -2.1 7 Norte 10 Norte 0 -- -- 90
2019-02-14 06:00:00 -1.8 6 Norte 10 Norte 0 -- -- 91
2019-02-14 05:00:00 -1.9 6 Norte 10 Norte 0 -- -- 91
2019-02-14 04:00:00 -1.6 6 Norte 10 Norte 0 -- -- 90
2019-02-14 03:00:00 -1.1 8 Norte 11 Norte 0 -- -- 87
2019-02-14 02:00:00 -1.1 8 Norte 10 Norte 0 -- -- 86
2019-02-14 01:00:00 -0.9 7 Norte 10 Norte 0 -- -- 85
2019-02-14 00:00:00 -0.4 6 Norte 15 Norte 0 -- -- 81
2019-02-13 23:00:00 0.3 6 Norte 15 Norte 0 -- -- 77
2019-02-13 22:00:00 0.8 10 Norte 14 Norte 0 -- -- 74
2019-02-13 21:00:00 1.1 6 Norte 13 Norte 0 -- -- 73
2019-02-13 20:00:00 2.4 10 Norte 12 Norte 0 -- -- 68
2019-02-13 19:00:00 4.4 9 Norte 12 Norte 0 -- -- 61
2019-02-13 18:00:00 10.7 6 Sur 15 Sur 0 -- -- 39
2019-02-13 17:00:00 11.5 8 Sur 18 Sudeste 0 -- -- 33
2019-02-13 16:00:00 12 10 Sur 18 Sur 0 -- -- 37
2019-02-13 15:00:00 13.1 11 Sur 20 Sudeste 0 -- -- 35
2019-02-13 14:00:00 12 10 Sur 19 Sudeste 0 -- -- 39
2019-02-13 13:00:00 11.1 9 Sur 17 Sudeste 0 -- -- 40
2019-02-13 12:00:00 11.2 9 Sur 16 Sudeste 0 -- -- 39
2019-02-13 11:00:00 9.7 5 Sudeste 10 Sudeste 0 -- -- 41
2019-02-13 10:00:00 4.5 5 Norte 10 Norte 0 -- -- 56
2019-02-13 09:00:00 0.6 8 Norte 11 Norte 0 -- -- 68
2019-02-13 08:00:00 -1.1 7 Norte 12 Norte 0 -- -- 74
2019-02-13 07:00:00 -1.3 7 Norte 12 Norte 0 -- -- 76
2019-02-13 06:00:00 -1.6 8 Norte 13 Norte 0 -- -- 78
2019-02-13 05:00:00 -1.2 7 Norte 10 Norte 0 -- -- 75
2019-02-13 04:00:00 -1 8 Norte 12 Norte 0 -- -- 73
2019-02-13 03:00:00 -0.8 8 Norte 13 Norte 0 -- -- 73
2019-02-13 02:00:00 -0.9 9 Norte 14 Norte 0 -- -- 76
2019-02-13 01:00:00 -0.8 9 Norte 13 Norte 0 -- -- 73
2019-02-13 00:00:00 -0.8 9 Norte 14 Norte 0 -- -- 73
2019-02-12 23:00:00 -0.7 8 Norte 11 Norte 0 -- -- 75
2019-02-12 22:00:00 -0.3 8 Norte 12 Norte 0 -- -- 76
2019-02-12 21:00:00 0.3 8 Norte 13 Norte 0 -- -- 73
2019-02-12 20:00:00 0.9 8 Norte 13 Norte 0 -- -- 71
2019-02-12 19:00:00 3.5 9 Norte 12 Norte 0 -- -- 62
2019-02-12 18:00:00 8.7 5 Sur 12 Sur 0 -- -- 43
2019-02-12 17:00:00 9.9 9 Sur 16 Sur 0 -- -- 40
2019-02-12 16:00:00 11.3 8 Sur 17 Sudoeste 0 -- -- 37
2019-02-12 15:00:00 11 9 Sur 17 Sur 0 -- -- 33
2019-02-12 14:00:00 10.3 8 Sur 16 Sur 0 -- -- 33
2019-02-12 13:00:00 10.2 9 Sur 15 Sur 0 -- -- 39
2019-02-12 12:00:00 7.8 7 Sur 11 Sur 0 -- -- 45
2019-02-12 11:00:00 6.2 6 Sur 11 Sur 0 -- -- 52
2019-02-12 10:00:00 2.3 0 Calma 8 Sur 0 -- -- 62
2019-02-12 09:00:00 -1.1 2 Norte 9 Noroeste 0 -- -- 69
2019-02-12 08:00:00 -3.7 2 Norte 6 Oeste 0 -- -- 80
2019-02-12 07:00:00 -3 2 Sur 13 Noroeste 0 -- -- 76
2019-02-12 06:00:00 -2.5 2 Sudoeste 13 Este 0 -- -- 74
2019-02-12 05:00:00 -0.2 3 Norte 21 Noroeste 0 -- -- 61
2019-02-12 04:00:00 -1.7 6 Noroeste 16 Norte 0 -- -- 78
2019-02-12 03:00:00 -1.2 3 Noroeste 15 Norte 0 -- -- 81
2019-02-12 02:00:00 0.3 4 Nordeste 31 Noroeste 0 -- -- 77
2019-02-12 01:00:00 0.2 18 Norte 29 Norte 0 -- -- 83
2019-02-12 00:00:00 0.7 16 Nordeste 27 Nordeste 0 -- -- 80
2019-02-11 23:00:00 1 13 Norte 27 Nordeste 0 -- -- 83
2019-02-11 22:00:00 0.9 12 Norte 33 Norte 0 -- -- 83
2019-02-11 21:00:00 1.4 6 Norte 36 Norte 0 -- -- 81
2019-02-11 20:00:00 1.7 14 Norte 38 Norte 0 -- -- 81
2019-02-11 19:00:00 1.8 18 Norte 32 Norte 0 -- -- 80
2019-02-11 18:00:00 2 19 Norte 36 Norte 0 -- -- 82
2019-02-11 17:00:00 2.9 20 Norte 32 Norte 0 -- -- 73
2019-02-11 16:00:00 3.2 7 Norte 30 Norte 0 -- -- 77
2019-02-11 15:00:00 3.2 13 Norte 26 Norte 0 -- -- 74
2019-02-11 14:00:00 3 12 Norte 24 Noroeste 0 -- -- 75
2019-02-11 13:00:00 3.2 16 Norte 28 Norte 0 -- -- 76
2019-02-11 12:00:00 2.2 17 Norte 32 Norte 0 -- -- 79
2019-02-11 11:00:00 1 19 Norte 40 Norte 0 -- -- 81
2019-02-11 10:00:00 1.4 5 Nordeste 33 Norte 0 -- -- 77
2019-02-11 09:00:00 -0.1 11 Norte 32 Noroeste 0 -- -- 83
2019-02-11 08:00:00 -0.2 17 Norte 28 Norte 0 -- -- 82
2019-02-11 07:00:00 0.1 9 Norte 26 Norte 0 -- -- 81
2019-02-11 06:00:00 -0.2 19 Norte 33 Norte 0 -- -- 83
2019-02-11 05:00:00 -0.2 17 Noroeste 35 Norte 0 -- -- 87
2019-02-11 04:00:00 0.4 21 Norte 33 Norte 0 -- -- 88
2019-02-11 03:00:00 1 26 Norte 42 Norte 0 -- -- 90
2019-02-11 02:00:00 1 22 Norte 32 Norte 0 -- -- 90
2019-02-11 01:00:00 1.2 20 Norte 31 Noroeste 0 -- -- 93
2019-02-11 00:00:00 1.4 13 Norte 21 Norte 0 -- -- 92
2019-02-10 23:00:00 1.7 13 Norte 30 Norte 0 -- -- 92
2019-02-10 22:00:00 2.1 17 Norte 38 Norte 0 -- -- 93
2019-02-10 21:00:00 3.3 21 Norte 32 Norte 0 -- -- 90
2019-02-10 20:00:00 4.8 17 Norte 25 Norte 0 -- -- 88
2019-02-10 19:00:00 5.8 12 Norte 19 Nordeste 0 -- -- 85
2019-02-10 18:00:00 7.8 5 Noroeste 14 Sudoeste 0 -- -- 78
2019-02-10 17:00:00 7.9 8 Sudoeste 22 Oeste 0 -- -- 82
2019-02-10 16:00:00 8.4 14 Oeste 33 Sudoeste 0 -- -- 76
2019-02-10 15:00:00 8.7 12 Sudoeste 31 Oeste 0 -- -- 75
2019-02-10 14:00:00 9.2 14 Sudoeste 40 Sudoeste 0 -- -- 75
2019-02-10 13:00:00 6.5 13 Sudoeste 41 Sudoeste 0 -- -- 82
2019-02-10 12:00:00 6.2 15 Sudoeste 52 Sudoeste 0 -- -- 85
2019-02-10 11:00:00 4.8 11 Sudoeste 31 Sur 0 -- -- 87
2019-02-10 10:00:00 4.7 11 Sur 25 Sudoeste 0 -- -- 85
2019-02-10 09:00:00 4.5 11 Sudoeste 38 Sudoeste 0 -- -- 82
2019-02-10 08:00:00 4.4 13 Sudoeste 33 Sudoeste 0 -- -- 80
2019-02-10 07:00:00 4.2 13 Sudoeste 41 Oeste 0 -- -- 80
2019-02-10 06:00:00 4.1 14 Oeste 33 Oeste 0 -- -- 77
2019-02-10 05:00:00 3.9 14 Oeste 43 Oeste 0 -- -- 78
2019-02-10 04:00:00 4 18 Oeste 43 Oeste 0 -- -- 79
2019-02-10 03:00:00 3.8 23 Sudoeste 49 Sudoeste 0 -- -- 76
2019-02-10 02:00:00 4.4 11 Sudoeste 37 Oeste 0 -- -- 70
2019-02-10 01:00:00 4.9 6 Sur 28 Sudoeste 0 -- -- 70
2019-02-10 00:00:00 5.6 6 Sudeste 31 Oeste 0 -- -- 71
2019-02-09 23:00:00 5.9 6 Oeste 27 Oeste 0 -- -- 70
2019-02-09 22:00:00 5.7 11 Sur 36 Sur 0 -- -- 71
2019-02-09 21:00:00 5.1 13 Sudeste 20 Sudeste 0 -- -- 74
2019-02-09 20:00:00 5.6 6 Sur 15 Sur 0 -- -- 69
2019-02-09 19:00:00 6.6 9 Sur 17 Sur 0 -- -- 64
2019-02-09 18:00:00 7.9 9 Sur 32 Sudoeste 0 -- -- 58
2019-02-09 17:00:00 8.4 8 Sur 27 Sudoeste 0 -- -- 57
2019-02-09 16:00:00 10 9 Sudoeste 24 Sudoeste 0 -- -- 49
2019-02-09 15:00:00 10.1 13 Sur 25 Sur 0 -- -- 55
2019-02-09 14:00:00 9.7 12 Sur 23 Sur 0 -- -- 62
2019-02-09 13:00:00 9 10 Sur 20 Sur 0 -- -- 65
2019-02-09 12:00:00 7 6 Sudeste 14 Sudeste 0 -- -- 72
2019-02-09 11:00:00 5.1 4 Sudeste 10 Sudeste 0 -- -- 79
2019-02-09 10:00:00 1.8 0 Calma 10 Norte 0 -- -- 91
2019-02-09 09:00:00 -1.8 4 Norte 9 Norte 0 -- -- 94
2019-02-09 08:00:00 -1.8 7 Norte 9 Norte 0 -- -- 93
2019-02-09 07:00:00 -1.7 4 Norte 9 Norte 0 -- -- 93
2019-02-09 06:00:00 -1.6 5 Norte 10 Norte 0 -- -- 92
2019-02-09 05:00:00 -0.8 4 Norte 8 Norte 0 -- -- 91
2019-02-09 04:00:00 -0.2 5 Noroeste 11 Norte 0 -- -- 90
2019-02-09 03:00:00 1 4 Norte 17 Sur 0 -- -- 87
2019-02-09 02:00:00 2.4 7 Sur 17 Sudoeste 0 -- -- 83
2019-02-09 01:00:00 3.1 0 Calma 14 Sudeste 0 -- -- 75
2019-02-09 00:00:00 4.4 4 Sudeste 33 Sudoeste 0 -- -- 68
2019-02-08 23:00:00 3.9 9 Sudeste 20 Sudeste 0 -- -- 62
2019-02-08 22:00:00 3.2 12 Sudeste 19 Este 0 -- -- 62
2019-02-08 21:00:00 2.6 2 Este 8 Este 0 -- -- 55
2019-02-08 20:00:00 3.9 3 Nordeste 11 Sudeste 0 -- -- 56
2019-02-08 19:00:00 6.4 4 Sudoeste 23 Sudoeste 0 -- -- 48
2019-02-08 18:00:00 9 12 Sudoeste 31 Sudoeste 0 -- -- 47
2019-02-08 17:00:00 10.4 14 Sudoeste 29 Sudoeste 0 -- -- 43
2019-02-08 16:00:00 12 13 Sudoeste 37 Sudoeste 0 -- -- 42
2019-02-08 15:00:00 12.5 13 Sudoeste 32 Sudoeste 0 -- -- 41
2019-02-08 14:00:00 11.9 12 Sur 41 Sur 0 -- -- 44
2019-02-08 13:00:00 8.9 11 Sur 17 Sur 0 -- -- 65
2019-02-08 12:00:00 7.2 8 Sur 15 Sur 0 -- -- 70
2019-02-08 11:00:00 4.6 6 Sudeste 12 Sur 0 -- -- 75
2019-02-08 10:00:00 1.1 0 Calma 9 Nordeste 0 -- -- 90
2019-02-08 09:00:00 -2.8 0 Calma 9 Norte 0 -- -- 94
2019-02-08 08:00:00 -3.4 7 Norte 10 Norte 0 -- -- 93
2019-02-08 07:00:00 -3.1 6 Norte 11 Norte 0 -- -- 92
2019-02-08 06:00:00 -2.8 5 Norte 9 Norte 0 -- -- 92
2019-02-08 05:00:00 -1.8 5 Norte 10 Norte 0 -- -- 92
2019-02-08 04:00:00 -1.7 7 Norte 13 Norte 0 -- -- 92
2019-02-08 03:00:00 -1.7 5 Norte 13 Norte 0 -- -- 90
2019-02-08 02:00:00 -1.6 5 Norte 13 Norte 0 -- -- 90
2019-02-08 01:00:00 -1.6 5 Norte 13 Norte 0 -- -- 91
2019-02-08 00:00:00 -1.3 6 Norte 12 Norte 0 -- -- 91
2019-02-07 23:00:00 -0.9 6 Norte 13 Norte 0 -- -- 91
2019-02-07 22:00:00 -0.4 8 Norte 12 Norte 0 -- -- 91
2019-02-07 21:00:00 0.6 8 Norte 11 Norte 0 -- -- 89
2019-02-07 20:00:00 1.6 5 Noroeste 10 Norte 0 -- -- 84
2019-02-07 19:00:00 4.5 3 Norte 12 Norte 0 -- -- 76
2019-02-07 18:00:00 6.9 11 Norte 19 Norte 0 -- -- 69
2019-02-07 17:00:00 7.9 14 Norte 22 Norte 0 -- -- 66
2019-02-07 16:00:00 9.5 16 Norte 23 Norte 0 -- -- 53
2019-02-07 15:00:00 10.2 3 Sudeste 17 Sur 0 -- -- 52
2019-02-07 14:00:00 9.8 7 Sur 15 Sur 0 -- -- 56
2019-02-07 13:00:00 9.1 10 Sur 26 Noroeste 0 -- -- 58
2019-02-07 12:00:00 8.1 16 Norte 28 Norte 0 -- -- 60
2019-02-07 11:00:00 7.7 8 Este 18 Nordeste 0 -- -- 63
2019-02-07 10:00:00 2 3 Este 8 Norte 0 -- -- 74
2019-02-07 09:00:00 -0.1 3 Norte 10 Norte 0 -- -- 79
2019-02-07 08:00:00 -1.4 3 Norte 9 Norte 0 -- -- 81
2019-02-07 07:00:00 -0.2 3 Norte 14 Noroeste 0 -- -- 75
2019-02-07 06:00:00 -0.7 7 Norte 14 Norte 0 -- -- 80
2019-02-07 05:00:00 -0.1 6 Norte 15 Norte 0 -- -- 82
2019-02-07 04:00:00 0.3 8 Norte 13 Norte 0 -- -- 84
2019-02-07 03:00:00 0.8 5 Noroeste 14 Norte 0 -- -- 84
2019-02-07 02:00:00 0.8 6 Norte 17 Noroeste 0 -- -- 81
2019-02-07 01:00:00 0.4 10 Norte 17 Norte 0 -- -- 82
2019-02-07 00:00:00 -0.2 6 Norte 13 Norte 0 -- -- 80
2019-02-06 23:00:00 0.4 9 Norte 15 Noroeste 0 -- -- 77
2019-02-06 22:00:00 0.7 7 Norte 13 Norte 0 -- -- 77
2019-02-06 21:00:00 1 8 Norte 11 Norte 0 -- -- 78
2019-02-06 20:00:00 2.9 6 Norte 12 Norte 0 -- -- 72
2019-02-06 19:00:00 6.1 5 Norte 17 Noroeste 0 -- -- 64
2019-02-06 18:00:00 10.2 3 Sudoeste 17 Sudoeste 0 -- -- 56
2019-02-06 17:00:00 12.2 9 Sudoeste 21 Sur 0 -- -- 51
2019-02-06 16:00:00 13.5 14 Sudoeste 24 Sudoeste 0 -- -- 48
2019-02-06 15:00:00 12.5 9 Sur 15 Sudeste 0 -- -- 54
2019-02-06 14:00:00 11.9 6 Sudeste 15 Sur 0 -- -- 53
2019-02-06 13:00:00 12 7 Sur 13 Sur 0 -- -- 49
2019-02-06 12:00:00 10.8 3 Sudeste 8 Sudeste 0 -- -- 52
2019-02-06 11:00:00 8.5 3 Sudeste 7 Sudeste 0 -- -- 63
2019-02-06 10:00:00 4.1 3 Norte 9 Norte 0 -- -- 78
2019-02-06 09:00:00 0.9 6 Noroeste 13 Norte 0 -- -- 89
2019-02-06 08:00:00 -1.4 6 Norte 9 Norte 0 -- -- 93
2019-02-06 07:00:00 -1.2 6 Norte 10 Norte 0 -- -- 91
2019-02-06 06:00:00 -1.3 4 Norte 11 Norte 0 -- -- 91
2019-02-06 05:00:00 -0.6 5 Norte 12 Norte 0 -- -- 90
2019-02-06 04:00:00 -0.2 10 Norte 14 Norte 0 -- -- 94
2019-02-06 03:00:00 -0.6 6 Norte 10 Norte 0 -- -- 95
2019-02-06 02:00:00 -0.3 5 Norte 10 Norte 0 -- -- 94
2019-02-06 01:00:00 0.7 8 Norte 14 Norte 0 -- -- 93
2019-02-06 00:00:00 0.4 8 Norte 13 Norte 0 -- -- 94
2019-02-05 23:00:00 0.3 7 Norte 12 Norte 0 -- -- 93
2019-02-05 22:00:00 1.1 8 Norte 15 Norte 0 -- -- 91
2019-02-05 21:00:00 2 8 Norte 16 Norte 0 -- -- 88
2019-02-05 20:00:00 3.6 10 Noroeste 19 Norte 0 -- -- 85
2019-02-05 19:00:00 4.1 11 Noroeste 17 Noroeste 0 -- -- 82
2019-02-05 18:00:00 7.5 4 Norte 13 Noroeste 0 -- -- 68
2019-02-05 17:00:00 9.4 10 Norte 15 Norte 0 -- -- 60
2019-02-05 16:00:00 10.3 9 Norte 21 Norte 0 -- -- 57
2019-02-05 15:00:00 10.4 14 Norte 26 Norte 0 -- -- 56
2019-02-05 14:00:00 10.6 11 Nordeste 26 Nordeste 0 -- -- 54
2019-02-05 13:00:00 9.6 12 Norte 24 Norte 0 -- -- 59
2019-02-05 12:00:00 9 12 Norte 21 Norte 0 -- -- 61
2019-02-05 11:00:00 9.3 4 Sur 9 Sudeste 0 -- -- 63
2019-02-05 10:00:00 5.1 0 Calma 10 Norte 0 -- -- 83
2019-02-05 09:00:00 1.5 8 Norte 10 Noroeste 0 -- -- 93
2019-02-05 08:00:00 0.4 5 Este 12 Noroeste 0 -- -- 92
2019-02-05 07:00:00 1.5 2 Nordeste 8 Noroeste 0 -- -- 93
2019-02-05 06:00:00 2.1 7 Noroeste 11 Nordeste 0 -- -- 87
2019-02-05 05:00:00 1.9 0 Calma 14 Norte 0 -- -- 88
2019-02-05 04:00:00 2 0 Calma 16 Norte 0 -- -- 87
2019-02-05 03:00:00 1.7 3 Norte 8 Noroeste 0 -- -- 87
2019-02-05 02:00:00 1.9 6 Norte 12 Norte 0 -- -- 85
2019-02-05 01:00:00 1.6 3 Norte 13 Noroeste 0 -- -- 85
2019-02-05 00:00:00 1 7 Norte 13 Norte 0 -- -- 84
2019-02-04 23:00:00 0.7 5 Norte 13 Noroeste 0 -- -- 83
2019-02-04 22:00:00 1.3 7 Norte 12 Noroeste 0 -- -- 80
2019-02-04 21:00:00 1.3 8 Norte 12 Norte 0 -- -- 78
2019-02-04 20:00:00 2.2 4 Noroeste 9 Noroeste 0 -- -- 75
2019-02-04 19:00:00 3.6 9 Noroeste 12 Noroeste 0 -- -- 68
2019-02-04 18:00:00 5.7 7 Norte 12 Norte 0 -- -- 60
2019-02-04 17:00:00 7.4 8 Norte 17 Norte 0 -- -- 53
2019-02-04 16:00:00 7.3 8 Norte 17 Nordeste 0 -- -- 41
2019-02-04 15:00:00 8.1 9 Norte 17 Norte 0 -- -- 34
2019-02-04 14:00:00 8.2 9 Nordeste 17 Nordeste 0 -- -- 35
2019-02-04 13:00:00 7.7 4 Norte 22 Norte 0.4 -- -- 35
2019-02-04 12:00:00 7.7 10 Norte 20 Nordeste 2.6 -- -- 36
2019-02-04 11:00:00 5.9 0 Calma 12 Sudoeste 1.8 -- -- 44
2019-02-04 10:00:00 -1.2 3 Sur 7 Sur 0 -- -- 70
2019-02-04 09:00:00 -4.6 0 Calma 9 Sur 0 -- -- 78
2019-02-04 08:00:00 -4.3 2 Sur 19 Norte 0 -- -- 68
2019-02-04 07:00:00 -0.7 11 Noroeste 28 Noroeste 0 -- -- 49
2019-02-04 06:00:00 -1.9 14 Noroeste 29 Noroeste 0 -- -- 53
2019-02-04 05:00:00 -2.9 17 Noroeste 25 Noroeste 0 -- -- 68
2019-02-04 04:00:00 -3 18 Noroeste 25 Noroeste 0 -- -- 80
2019-02-04 03:00:00 -4 10 Oeste 20 Noroeste 0 -- -- 84
2019-02-04 02:00:00 -3.7 9 Noroeste 21 Norte 0 -- -- 84
2019-02-04 01:00:00 -2.6 15 Norte 43 Norte 0 -- -- 83
2019-02-04 00:00:00 -2.3 28 Norte 44 Noroeste 0 -- -- 86
2019-02-03 23:00:00 -2.2 17 Norte 44 Norte 0 -- -- 84
2019-02-03 22:00:00 -2.3 26 Norte 48 Norte 0 -- -- 86
2019-02-03 21:00:00 -2.5 26 Norte 44 Norte 0 -- -- 85
2019-02-03 20:00:00 -2.4 19 Norte 41 Norte 0 -- -- 88
2019-02-03 19:00:00 -2.6 22 Norte 48 Nordeste 0 -- -- 84
2019-02-03 18:00:00 -2 29 Norte 50 Norte 0.2 -- -- 82
2019-02-03 17:00:00 -0.7 18 Norte 49 Norte 0.8 -- -- 79
2019-02-03 16:00:00 -0.8 25 Norte 53 Norte 1 -- -- 78
2019-02-03 15:00:00 -0.7 25 Norte 54 Norte 1 -- -- 77
2019-02-03 14:00:00 -1 24 Norte 54 Norte 0 -- -- 79
2019-02-03 13:00:00 -1.2 24 Norte 63 Noroeste 0 -- -- 78
2019-02-03 12:00:00 -1.9 38 Norte 61 Norte 0 -- -- 82
2019-02-03 11:00:00 -2.2 37 Norte 69 Norte 0 -- -- 80
2019-02-03 10:00:00 -2.9 37 Norte 69 Norte 0 -- -- 81
2019-02-03 09:00:00 -3.4 33 Norte 65 Norte 0 -- -- 86
2019-02-03 08:00:00 -4 33 Norte 58 Norte 0 -- -- 85
2019-02-03 07:00:00 -4 33 Norte 68 Norte 0 -- -- 84
2019-02-03 06:00:00 -3.9 28 Norte 51 Noroeste 0 -- -- 85
2019-02-03 05:00:00 -3.8 25 Norte 50 Norte 0 -- -- 87
2019-02-03 04:00:00 -4 27 Norte 54 Norte 0 -- -- 83
2019-02-03 03:00:00 -4.3 22 Norte 46 Nordeste 0 -- -- 93
2019-02-03 02:00:00 -4 23 Norte 59 Norte 0 -- -- 92
2019-02-03 01:00:00 -3.2 26 Norte 50 Norte 0 -- -- 84
2019-02-03 00:00:00 -3.2 28 Norte 48 Noroeste 0 -- -- 88
2019-02-02 23:00:00 -2.8 28 Norte 62 Noroeste 0 -- -- 83
2019-02-02 22:00:00 -3.3 17 Norte 40 Norte 0 -- -- 92
2019-02-02 21:00:00 -2.5 27 Norte 53 Norte 0 -- -- 84
2019-02-02 20:00:00 -2.9 8 Norte 35 Norte 0 -- -- 86
2019-02-02 19:00:00 -3.1 28 Noroeste 52 Norte 0 -- -- 86
2019-02-02 18:00:00 -2.7 32 Norte 57 Noroeste 0 -- -- 80
2019-02-02 17:00:00 -2.6 31 Norte 59 Norte 0 -- -- 81
2019-02-02 16:00:00 -2 30 Norte 63 Norte 0 -- -- 82
2019-02-02 15:00:00 -1.5 41 Norte 91 Noroeste 0 -- -- 76
2019-02-02 14:00:00 -1.5 41 Norte 95 Noroeste 0 -- -- 78
2019-02-02 13:00:00 -2.1 60 Noroeste 97 Noroeste 0 -- -- 84
2019-02-02 12:00:00 -1.9 55 Noroeste 95 Norte 0 -- -- 84
2019-02-02 11:00:00 -2 53 Norte 92 Noroeste 0 -- -- 84
2019-02-02 10:00:00 -2 52 Noroeste 93 Noroeste 0 -- -- 90
2019-02-02 09:00:00 -1.9 56 Noroeste 86 Norte 0 -- -- 89
2019-02-02 08:00:00 -1.6 47 Norte 73 Noroeste 0 -- -- 87
2019-02-02 07:00:00 -1.5 37 Noroeste 64 Noroeste 0 -- -- 91
2019-02-02 06:00:00 -1.5 28 Noroeste 49 Noroeste 0 -- -- 95
2019-02-02 05:00:00 -1.5 17 Noroeste 35 Noroeste 0 -- -- 94
2019-02-02 04:00:00 -1.2 4 Oeste 31 Noroeste 0 -- -- 94
2019-02-02 03:00:00 -1.1 13 Noroeste 37 Noroeste 0 -- -- 92
2019-02-02 02:00:00 -0.2 17 Noroeste 30 Noroeste 0 -- -- 86
2019-02-02 01:00:00 -0.2 16 Noroeste 35 Oeste 0 -- -- 82
2019-02-02 00:00:00 -0.3 18 Noroeste 38 Noroeste 0 -- -- 79
2019-02-01 23:00:00 -0.7 13 Noroeste 35 Oeste 0 -- -- 80
2019-02-01 22:00:00 -1.1 8 Oeste 26 Oeste 0.2 -- -- 83
2019-02-01 21:00:00 -0.8 16 Oeste 30 Noroeste 0 -- -- 89
2019-02-01 20:00:00 -0.6 10 Oeste 36 Sudoeste 0 -- -- 89
2019-02-01 19:00:00 0.2 13 Oeste 42 Sudoeste 0 -- -- 80
2019-02-01 18:00:00 0.4 20 Oeste 39 Oeste 0.2 -- -- 80
2019-02-01 17:00:00 0.9 22 Oeste 48 Oeste 0.4 -- -- 83
2019-02-01 16:00:00 1.1 15 Sudoeste 56 Sudoeste 0.6 -- -- 89
2019-02-01 15:00:00 1.2 23 Sudoeste 66 Sudoeste 1 -- -- 93
2019-02-01 14:00:00 1.1 13 Sudoeste 43 Sudoeste 0.6 -- -- 90
2019-02-01 13:00:00 0.8 21 Sudoeste 45 Sudoeste 0.2 -- -- 91
2019-02-01 12:00:00 1.2 26 Sudoeste 47 Sudoeste 0.4 -- -- 88
2019-02-01 11:00:00 2 24 Sudoeste 53 Sudoeste 0.2 -- -- 75
2019-02-01 10:00:00 1.5 23 Sudoeste 45 Oeste 0.2 -- -- 76
2019-02-01 09:00:00 1.2 8 Sudoeste 51 Oeste 0 -- -- 84
2019-02-01 08:00:00 1.5 13 Sudoeste 41 Oeste 0 -- -- 87
2019-02-01 07:00:00 2 21 Oeste 46 Oeste 0 -- -- 81
2019-02-01 06:00:00 2.3 24 Sudoeste 55 Oeste 0 -- -- 83
2019-02-01 05:00:00 2.6 26 Oeste 52 Oeste 0 -- -- 80
2019-02-01 04:00:00 3 27 Sudoeste 53 Sudoeste 0 -- -- 83
2019-02-01 03:00:00 3.5 18 Sudoeste 48 Sudoeste 0.4 -- -- 91
2019-02-01 02:00:00 3.7 5 Noroeste 26 Sudoeste 3.4 -- -- 92
2019-02-01 01:00:00 5.1 22 Sudoeste 39 Sudoeste 4.8 -- -- 93
2019-02-01 00:00:00 5.5 20 Sudoeste 48 Oeste 5 -- -- 93
2019-01-31 23:00:00 5.9 15 Sudoeste 51 Oeste 3.4 -- -- 94
2019-01-31 22:00:00 6.1 30 Sudoeste 57 Sudoeste 1.4 -- -- 94
2019-01-31 21:00:00 6.5 22 Sudoeste 50 Sudoeste 0.8 -- -- 93
2019-01-31 20:00:00 6.8 31 Sudoeste 58 Sudoeste 0.6 -- -- 92
2019-01-31 19:00:00 7 23 Sudoeste 51 Sudoeste 0.6 -- -- 92
2019-01-31 18:00:00 7.1 17 Sudoeste 54 Sudoeste 0.6 -- -- 92
2019-01-31 17:00:00 7.6 21 Sudoeste 53 Sudoeste 0.8 -- -- 90
2019-01-31 16:00:00 8.4 17 Sudoeste 48 Oeste 0.4 -- -- 88
2019-01-31 15:00:00 8 9 Sudoeste 37 Oeste 0.2 -- -- 90
2019-01-31 14:00:00 7.9 16 Sudoeste 37 Sudoeste 0 -- -- 86
2019-01-31 13:00:00 8.6 13 Sudoeste 37 Sudoeste 0 -- -- 79
2019-01-31 12:00:00 7.2 10 Sudoeste 35 Oeste 0 -- -- 83
2019-01-31 11:00:00 7 12 Oeste 33 Oeste 0 -- -- 84
2019-01-31 10:00:00 5.4 7 Oeste 29 Oeste 0.2 -- -- 87
2019-01-31 09:00:00 5.3 9 Oeste 24 Oeste 0.6 -- -- 90
2019-01-31 08:00:00 5.1 8 Oeste 34 Sudoeste 0.8 -- -- 90
2019-01-31 07:00:00 5 5 Oeste 25 Oeste 0.8 -- -- 90
2019-01-31 06:00:00 4.8 5 Oeste 15 Oeste 0.8 -- -- 90
2019-01-31 05:00:00 4.1 4 Sudoeste 12 Este 0.8 -- -- 92
2019-01-31 04:00:00 2.7 5 Este 17 Este 0.4 -- -- 96
2019-01-31 03:00:00 1.9 9 Sudeste 17 Sudeste 1 -- -- 95
2019-01-31 02:00:00 0.8 8 Sudeste 13 Sudeste 0 -- -- 96
2019-01-31 01:00:00 0.2 5 Sudeste 13 Sur 0 -- -- 96
2019-01-31 00:00:00 -0.2 7 Este 13 Este 0 -- -- 95
2019-01-30 23:00:00 -0.4 9 Sudeste 17 Este 0 -- -- 93
2019-01-30 22:00:00 0.4 6 Sur 21 Sudoeste 0 -- -- 91
2019-01-30 21:00:00 0.1 8 Sudeste 21 Sudeste 0 -- -- 89
2019-01-30 20:00:00 0.5 8 Sur 22 Oeste 0 -- -- 84
2019-01-30 19:00:00 1.5 9 Oeste 35 Oeste 0 -- -- 72
2019-01-30 18:00:00 2 22 Oeste 40 Oeste 0 -- -- 64
2019-01-30 17:00:00 2.8 18 Oeste 33 Oeste 0 -- -- 59
2019-01-30 16:00:00 3.3 18 Sudoeste 35 Oeste 0 -- -- 56
2019-01-30 15:00:00 4.1 17 Sudoeste 32 Oeste 0 -- -- 54
2019-01-30 14:00:00 4.9 14 Oeste 32 Sudoeste 0 -- -- 49
2019-01-30 13:00:00 4.4 12 Oeste 27 Oeste 0 -- -- 51
2019-01-30 12:00:00 3.7 13 Oeste 26 Oeste 0 -- -- 58
2019-01-30 11:00:00 3.3 4 Sur 12 Sur 0 -- -- 62
2019-01-30 10:00:00 0.7 5 Sudeste 12 Sudeste 0 -- -- 69
2019-01-30 09:00:00 -0.4 4 Noroeste 21 Oeste 0 -- -- 68
2019-01-30 08:00:00 -0.4 9 Noroeste 28 Noroeste 0 -- -- 68
2019-01-30 07:00:00 -0.6 16 Noroeste 32 Noroeste 0 -- -- 72
2019-01-30 06:00:00 -0.4 10 Noroeste 27 Noroeste 0 -- -- 70
2019-01-30 05:00:00 -0.3 14 Noroeste 28 Noroeste 0 -- -- 71
2019-01-30 04:00:00 -0.2 9 Noroeste 21 Noroeste 0 -- -- 75
2019-01-30 03:00:00 -1 6 Noroeste 9 Norte 0 -- -- 84
2019-01-30 02:00:00 -1.1 0 Calma 8 Noroeste 0 -- -- 84
2019-01-30 01:00:00 -0.4 4 Noroeste 22 Noroeste 0 -- -- 77
2019-01-30 00:00:00 -0.1 9 Noroeste 27 Noroeste 0 -- -- 82
2019-01-29 23:00:00 0.2 13 Norte 31 Norte 0 -- -- 86
2019-01-29 22:00:00 0.8 18 Norte 33 Norte 0 -- -- 88
2019-01-29 21:00:00 0.9 10 Norte 20 Norte 0 -- -- 91
2019-01-29 20:00:00 1.9 10 Noroeste 30 Noroeste 0.4 -- -- 87
2019-01-29 19:00:00 2.5 17 Noroeste 33 Noroeste 0.2 -- -- 87
2019-01-29 18:00:00 3.6 21 Noroeste 39 Noroeste 0.2 -- -- 79
2019-01-29 17:00:00 4.2 0 Calma 22 Sudoeste 1.2 -- -- 87
2019-01-29 16:00:00 5.6 11 Oeste 33 Oeste 0 -- -- 75
2019-01-29 15:00:00 5.8 9 Oeste 49 Oeste 0 -- -- 76
2019-01-29 14:00:00 6.2 21 Oeste 53 Oeste 0 -- -- 66
2019-01-29 13:00:00 6.8 22 Oeste 38 Sudoeste 0 -- -- 67
2019-01-29 12:00:00 3.4 19 Sur 32 Sudoeste 0 -- -- 80
2019-01-29 11:00:00 1.6 2 Sudeste 12 Este 0 -- -- 87
2019-01-29 10:00:00 -0.6 2 Sudeste 12 Sur 0 -- -- 86
2019-01-29 09:00:00 -2.2 2 Sudoeste 5 Oeste 0 -- -- 88
2019-01-29 08:00:00 -1.7 2 Sudoeste 8 Sur 0 -- -- 86
2019-01-29 07:00:00 -1.3 4 Oeste 10 Sudoeste 0 -- -- 83
2019-01-29 06:00:00 0.2 5 Norte 13 Sudoeste 0 -- -- 76
2019-01-29 05:00:00 0.9 4 Norte 26 Norte 0 -- -- 75
2019-01-29 04:00:00 1.1 8 Norte 23 Norte 0 -- -- 77
2019-01-29 03:00:00 1.5 6 Norte 27 Sudeste 0 -- -- 78
2019-01-29 02:00:00 1.3 6 Nordeste 30 Norte 0 -- -- 80
2019-01-29 01:00:00 1.6 11 Noroeste 52 Norte 0 -- -- 78
2019-01-29 00:00:00 1.4 15 Noroeste 43 Noroeste 0 -- -- 78
2019-01-28 23:00:00 1.6 24 Norte 51 Noroeste 0 -- -- 77
2019-01-28 22:00:00 1.9 15 Noroeste 53 Noroeste 0 -- -- 75
2019-01-28 21:00:00 1.5 27 Noroeste 66 Norte 0 -- -- 72
2019-01-28 20:00:00 1.7 31 Norte 64 Norte 0 -- -- 79
2019-01-28 19:00:00 1.8 34 Norte 66 Norte 0 -- -- 83
2019-01-28 18:00:00 2.8 42 Norte 75 Norte 0 -- -- 72
2019-01-28 17:00:00 3.2 38 Norte 80 Noroeste 0 -- -- 74
2019-01-28 16:00:00 4 36 Noroeste 63 Norte 0.4 -- -- 78
2019-01-28 15:00:00 3.1 32 Noroeste 69 Noroeste 0 -- -- 85
2019-01-28 14:00:00 4.2 30 Noroeste 57 Noroeste 0.2 -- -- 81
2019-01-28 13:00:00 3.1 24 Noroeste 49 Noroeste 0.6 -- -- 88
2019-01-28 12:00:00 3.7 27 Noroeste 47 Noroeste 0 -- -- 76
2019-01-28 11:00:00 4.1 24 Noroeste 51 Oeste 0 -- -- 69
2019-01-28 10:00:00 4.2 25 Noroeste 47 Noroeste 0 -- -- 64
2019-01-28 09:00:00 2.5 24 Noroeste 50 Noroeste 0 -- -- 69
2019-01-28 08:00:00 1.5 19 Noroeste 44 Noroeste 0 -- -- 71
2019-01-28 07:00:00 1.4 17 Noroeste 37 Oeste 0 -- -- 71
2019-01-28 06:00:00 1.6 16 Noroeste 35 Noroeste 0 -- -- 69
2019-01-28 05:00:00 1.9 14 Noroeste 31 Noroeste 0 -- -- 69
2019-01-28 04:00:00 1.8 12 Noroeste 28 Noroeste 0 -- -- 73
2019-01-28 03:00:00 1.2 16 Noroeste 41 Noroeste 0 -- -- 74
2019-01-28 02:00:00 0.6 23 Noroeste 44 Noroeste 0 -- -- 74
2019-01-28 01:00:00 0.6 28 Norte 66 Norte 0 -- -- 76
2019-01-28 00:00:00 0.8 37 Norte 67 Norte 0 -- -- 74
2019-01-27 23:00:00 0.9 35 Norte 62 Norte 0 -- -- 72
2019-01-27 22:00:00 0.6 32 Norte 52 Norte 0 -- -- 74
2019-01-27 21:00:00 0.5 27 Norte 51 Noroeste 0 -- -- 75
2019-01-27 20:00:00 0.9 20 Norte 45 Noroeste 0 -- -- 74
2019-01-27 19:00:00 0.9 20 Norte 59 Noroeste 0 -- -- 71
2019-01-27 18:00:00 1.7 31 Norte 64 Norte 0 -- -- 68
2019-01-27 17:00:00 2.2 39 Norte 76 Norte 0.2 -- -- 68
2019-01-27 16:00:00 1.3 33 Norte 57 Noroeste 0 -- -- 80
2019-01-27 15:00:00 2.9 25 Noroeste 54 Noroeste 0 -- -- 67
2019-01-27 14:00:00 3.4 35 Noroeste 70 Norte 0 -- -- 62
2019-01-27 13:00:00 3.8 42 Norte 77 Norte 0 -- -- 63
2019-01-27 12:00:00 3.3 26 Norte 63 Noroeste 0 -- -- 63
2019-01-27 11:00:00 2.4 18 Norte 44 Norte 0 -- -- 73
2019-01-27 10:00:00 1.7 13 Noroeste 42 Noroeste 0 -- -- 85
2019-01-27 09:00:00 2.1 12 Norte 29 Noroeste 0 -- -- 86
2019-01-27 08:00:00 2.9 5 Norte 24 Oeste 0 -- -- 81
2019-01-27 07:00:00 0.4 4 Oeste 16 Oeste 0 -- -- 93
2019-01-27 06:00:00 -2.1 0 Calma 10 Noroeste 0 -- -- 92
2019-01-27 05:00:00 -2.4 0 Calma 10 Norte 0 -- -- 88
2019-01-27 04:00:00 -2.7 0 Calma 11 Noroeste 0 -- -- 83
2019-01-27 03:00:00 -1.9 8 Norte 12 Norte 0 -- -- 80
2019-01-27 02:00:00 -2.1 6 Norte 11 Noroeste 0 -- -- 79
2019-01-27 01:00:00 -1.3 9 Norte 13 Norte 0 -- -- 77
2019-01-27 00:00:00 -1.4 6 Norte 14 Norte 0 -- -- 80
2019-01-26 23:00:00 -1.5 7 Norte 10 Norte 0 -- -- 82
2019-01-26 22:00:00 -0.7 6 Norte 13 Norte 0 -- -- 79
2019-01-26 21:00:00 0.7 6 Norte 14 Noroeste 0 -- -- 70
2019-01-26 20:00:00 1.3 7 Norte 17 Norte 0 -- -- 68
2019-01-26 19:00:00 2.3 12 Noroeste 17 Norte 0 -- -- 70
2019-01-26 18:00:00 5.7 9 Norte 14 Norte 0 -- -- 62
2019-01-26 17:00:00 11 2 Sur 10 Sur 0 -- -- 55
2019-01-26 16:00:00 11.8 5 Sur 10 Sudeste 0 -- -- 51
2019-01-26 15:00:00 11.8 6 Sur 13 Sur 0 -- -- 50
2019-01-26 14:00:00 11.4 5 Sur 9 Sur 0 -- -- 50
2019-01-26 13:00:00 9.8 5 Sur 9 Sur 0 -- -- 52
2019-01-26 12:00:00 7.7 4 Sudeste 7 Sudeste 0 -- -- 59
2019-01-26 11:00:00 4.9 0 Calma 5 Sudeste 0 -- -- 72
2019-01-26 10:00:00 2.3 4 Sur 8 Sur 0 -- -- 78
2019-01-26 09:00:00 -1.9 0 Calma 13 Norte 0 -- -- 89
2019-01-26 08:00:00 -1.7 10 Norte 14 Norte 0 -- -- 91
2019-01-26 07:00:00 -1.4 0 Calma 10 Noroeste 0 -- -- 89
2019-01-26 06:00:00 -0.4 4 Norte 24 Norte 0 -- -- 88
2019-01-26 05:00:00 1.1 14 Norte 24 Norte 0 -- -- 88
2019-01-26 04:00:00 1.2 8 Norte 22 Norte 0 -- -- 89
2019-01-26 03:00:00 1.8 15 Norte 47 Norte 0 -- -- 89
2019-01-26 02:00:00 2.1 35 Norte 52 Norte 0 -- -- 90
2019-01-26 01:00:00 2.4 37 Norte 57 Norte 0 -- -- 90
2019-01-26 00:00:00 2.5 34 Norte 57 Norte 0 -- -- 89
2019-01-25 23:00:00 2.6 30 Norte 49 Norte 0 -- -- 88
2019-01-25 22:00:00 2.8 31 Norte 52 Norte 0 -- -- 88
2019-01-25 21:00:00 2.7 29 Norte 58 Norte 0 -- -- 90
2019-01-25 20:00:00 2.9 40 Norte 57 Noroeste 0 -- -- 89
2019-01-25 19:00:00 2.9 32 Norte 50 Norte 0 -- -- 90
2019-01-25 18:00:00 3.3 26 Norte 58 Norte 0 -- -- 89
2019-01-25 17:00:00 3.9 32 Norte 62 Norte 0 -- -- 85
2019-01-25 16:00:00 4.6 31 Norte 55 Nordeste 0 -- -- 80
2019-01-25 15:00:00 5 27 Norte 50 Nordeste 0 -- -- 82
2019-01-25 14:00:00 4.4 17 Norte 49 Norte 0 -- -- 85
2019-01-25 13:00:00 4.2 28 Norte 54 Norte 0 -- -- 88
2019-01-25 12:00:00 4.4 28 Norte 52 Norte 0.2 -- -- 86
2019-01-25 11:00:00 4.8 23 Norte 48 Norte 0 -- -- 84
2019-01-25 10:00:00 4.4 15 Norte 42 Noroeste 0 -- -- 87
2019-01-25 09:00:00 3.8 15 Norte 39 Noroeste 0 -- -- 91
2019-01-25 08:00:00 3.6 18 Norte 52 Noroeste 0 -- -- 91
2019-01-25 07:00:00 3.6 24 Norte 59 Noroeste 0 -- -- 91
2019-01-25 06:00:00 3.5 24 Norte 58 Norte 0 -- -- 91
2019-01-25 05:00:00 3.6 29 Norte 62 Norte 0.2 -- -- 91
2019-01-25 04:00:00 3.6 26 Norte 59 Norte 0 -- -- 92
2019-01-25 03:00:00 3.6 26 Norte 54 Norte 0.2 -- -- 95
2019-01-25 02:00:00 3.3 24 Norte 48 Norte 0 -- -- 95
2019-01-25 01:00:00 3.2 27 Norte 61 Norte 0 -- -- 96
2019-01-25 00:00:00 3 33 Norte 64 Norte 0 -- -- 96
2019-01-24 23:00:00 2.7 34 Norte 59 Norte 0 -- -- 97
2019-01-24 22:00:00 2.5 35 Norte 64 Norte 0 -- -- 97
2019-01-24 21:00:00 2.3 39 Norte 69 Norte 0 -- -- 96
2019-01-24 20:00:00 2.3 32 Norte 63 Norte 0.2 -- -- 94
2019-01-24 19:00:00 2.1 31 Norte 58 Norte 0 -- -- 95
2019-01-24 18:00:00 2 34 Norte 62 Norte 0 -- -- 94
2019-01-24 17:00:00 1.9 32 Norte 57 Norte 0 -- -- 94
2019-01-24 16:00:00 1.7 35 Norte 61 Norte 0 -- -- 92
2019-01-24 15:00:00 1.9 36 Norte 62 Norte 0 -- -- 90
2019-01-24 14:00:00 2.1 33 Norte 50 Noroeste 1.8 -- -- 90
2019-01-24 13:00:00 1.5 27 Norte 48 Norte 3.4 -- -- 93
2019-01-24 12:00:00 0.5 10 Norte 22 Norte 1.6 -- -- 96
2019-01-24 11:00:00 0.2 10 Norte 21 Norte 0.8 -- -- 96
2019-01-24 10:00:00 0.3 12 Norte 27 Norte 0.4 -- -- 96
2019-01-24 09:00:00 0.7 14 Norte 28 Noroeste 1 -- -- 95
2019-01-24 08:00:00 0.5 7 Norte 19 Norte 1 -- -- 96
2019-01-24 07:00:00 0.6 11 Norte 41 Norte 1.2 -- -- 95
2019-01-24 06:00:00 0.8 14 Norte 26 Norte 1 -- -- 95
2019-01-24 05:00:00 0.6 15 Norte 28 Norte 0.4 -- -- 95
2019-01-24 04:00:00 0.5 10 Norte 25 Norte 0.6 -- -- 95
2019-01-24 03:00:00 0.7 13 Norte 24 Norte 0.6 -- -- 95
2019-01-24 02:00:00 0.9 14 Norte 22 Norte 0.8 -- -- 94
2019-01-24 01:00:00 1.3 17 Norte 46 Norte 1.2 -- -- 92
2019-01-24 00:00:00 1.5 19 Norte 55 Norte 1 -- -- 91
2019-01-23 23:00:00 1.6 22 Norte 57 Noroeste 2 -- -- 92
2019-01-23 22:00:00 2.2 25 Norte 71 Noroeste 1.8 -- -- 90
2019-01-23 21:00:00 2.8 31 Noroeste 65 Noroeste 0.8 -- -- 90
2019-01-23 20:00:00 2.7 32 Noroeste 66 Noroeste 1 -- -- 89
2019-01-23 19:00:00 2.9 29 Noroeste 63 Noroeste 0.4 -- -- 90
2019-01-23 18:00:00 2.6 21 Noroeste 62 Noroeste 0.4 -- -- 91
2019-01-23 17:00:00 2.8 18 Noroeste 53 Noroeste 0.8 -- -- 91
2019-01-23 16:00:00 3 32 Noroeste 60 Noroeste 0.4 -- -- 89
2019-01-23 15:00:00 2.7 21 Norte 49 Noroeste 1.2 -- -- 91
2019-01-23 14:00:00 2.7 17 Noroeste 41 Noroeste 1.6 -- -- 92
2019-01-23 13:00:00 2.7 21 Noroeste 46 Noroeste 0.6 -- -- 91
2019-01-23 12:00:00 2.9 26 Noroeste 48 Noroeste 0.4 -- -- 90
2019-01-23 11:00:00 3.2 28 Noroeste 55 Noroeste 0.2 -- -- 89
2019-01-23 10:00:00 2.7 29 Noroeste 58 Noroeste 0.2 -- -- 89
2019-01-23 09:00:00 2.3 27 Noroeste 48 Noroeste 1.6 -- -- 91
2019-01-23 08:00:00 2.4 21 Noroeste 55 Noroeste 2.4 -- -- 89
2019-01-23 07:00:00 2.4 25 Noroeste 47 Noroeste 2 -- -- 86
2019-01-23 06:00:00 1.9 17 Noroeste 31 Noroeste 0.2 -- -- 88
2019-01-23 05:00:00 0.8 13 Noroeste 32 Noroeste 0 -- -- 92
2019-01-23 04:00:00 0.5 18 Noroeste 35 Noroeste 0 -- -- 94
2019-01-23 03:00:00 0.4 16 Noroeste 27 Noroeste 0 -- -- 94
2019-01-23 02:00:00 0.2 6 Noroeste 12 Este 0 -- -- 94
2019-01-23 01:00:00 0.3 4 Noroeste 26 Noroeste 0 -- -- 92
2019-01-23 00:00:00 0.3 10 Noroeste 24 Noroeste 0 -- -- 92
2019-01-22 23:00:00 0.2 9 Noroeste 26 Noroeste 0 -- -- 90
2019-01-22 22:00:00 -0.5 10 Noroeste 22 Noroeste 0 -- -- 95
2019-01-22 21:00:00 -1.2 0 Calma 12 Noroeste 0 -- -- 93
2019-01-22 20:00:00 -0.6 3 Noroeste 20 Noroeste 0.2 -- -- 91
2019-01-22 19:00:00 -0.5 11 Noroeste 22 Norte 0 -- -- 91
2019-01-22 18:00:00 -0.2 3 Norte 17 Noroeste 0 -- -- 92
2019-01-22 17:00:00 0 9 Norte 26 Noroeste 0.2 -- -- 90
2019-01-22 16:00:00 0.4 4 Sudeste 13 Este 0.8 -- -- 92
2019-01-22 15:00:00 0.8 4 Sudeste 25 Noroeste 0.4 -- -- 89
2019-01-22 14:00:00 1.1 5 Sur 15 Sur 0.8 -- -- 89
2019-01-22 13:00:00 1.2 3 Sudeste 8 Sudeste 0.4 -- -- 84
2019-01-22 12:00:00 1.2 4 Sur 12 Sur 0 -- -- 80
2019-01-22 11:00:00 0.7 3 Nordeste 9 Norte 0 -- -- 82
2019-01-22 10:00:00 -0.1 5 Nordeste 11 Norte 0 -- -- 84
2019-01-22 09:00:00 -0.1 10 Norte 30 Noroeste 0 -- -- 79
2019-01-22 08:00:00 -0.6 6 Norte 12 Norte 0 -- -- 81
2019-01-22 07:00:00 -1 4 Nordeste 22 Norte 0 -- -- 81
2019-01-22 06:00:00 -1.5 15 Norte 30 Norte 0 -- -- 83
2019-01-22 05:00:00 -2 13 Norte 27 Norte 0 -- -- 82
2019-01-22 04:00:00 -1.9 18 Norte 36 Noroeste 0 -- -- 82
2019-01-22 03:00:00 -1.3 22 Norte 39 Norte 0 -- -- 84
2019-01-22 02:00:00 -1.4 20 Norte 32 Norte 0 -- -- 83
2019-01-22 01:00:00 -1.6 17 Norte 33 Norte 0 -- -- 84
2019-01-22 00:00:00 -1.7 13 Norte 35 Noroeste 0 -- -- 80
2019-01-21 23:00:00 -1.4 15 Norte 40 Norte 0 -- -- 81
2019-01-21 22:00:00 -1.2 26 Norte 50 Noroeste 0 -- -- 82
2019-01-21 21:00:00 -1.6 21 Norte 46 Norte 0 -- -- 80
2019-01-21 20:00:00 -1.2 23 Norte 42 Noroeste 0 -- -- 82
2019-01-21 19:00:00 -1.4 22 Norte 46 Norte 0 -- -- 82
2019-01-21 18:00:00 -1.1 28 Norte 46 Norte 0 -- -- 82
2019-01-21 17:00:00 -0.8 25 Norte 52 Norte 0 -- -- 82
2019-01-21 16:00:00 -0.4 29 Norte 57 Norte 0 -- -- 80
2019-01-21 15:00:00 -0.3 30 Norte 48 Norte 0 -- -- 80
2019-01-21 14:00:00 0.4 22 Norte 43 Norte 0.6 -- -- 81
2019-01-21 13:00:00 -0.2 32 Norte 49 Norte 0.4 -- -- 81
2019-01-21 12:00:00 0.1 30 Norte 49 Norte 0.8 -- -- 84
2019-01-21 11:00:00 -0.1 27 Norte 48 Noroeste 1.2 -- -- 82
2019-01-21 10:00:00 -0.6 21 Norte 44 Norte 0 -- -- 87
2019-01-21 09:00:00 -1.1 17 Norte 41 Noroeste 0 -- -- 89
2019-01-21 08:00:00 -0.7 15 Norte 26 Norte 0 -- -- 94
2019-01-21 07:00:00 -0.6 13 Norte 26 Norte 0 -- -- 93
2019-01-21 06:00:00 -0.8 5 Norte 23 Norte 0 -- -- 94
2019-01-21 05:00:00 -0.6 11 Norte 26 Norte 0 -- -- 93
2019-01-21 04:00:00 -0.4 8 Norte 24 Noroeste 0 -- -- 94
2019-01-21 03:00:00 -0.6 12 Norte 38 Norte 0 -- -- 93
2019-01-21 02:00:00 -0.4 15 Norte 28 Noroeste 0 -- -- 95
2019-01-21 01:00:00 -0.3 16 Norte 33 Norte 0 -- -- 93
2019-01-21 00:00:00 -0.1 20 Norte 37 Norte 0 -- -- 91
2019-01-20 23:00:00 0 17 Norte 40 Norte 0 -- -- 94
2019-01-20 22:00:00 0.2 27 Norte 48 Norte 0 -- -- 90
2019-01-20 21:00:00 0.2 32 Norte 53 Norte 0 -- -- 91
2019-01-20 20:00:00 0.1 20 Norte 41 Norte 0.2 -- -- 92
2019-01-20 19:00:00 0.2 16 Norte 27 Norte 0 -- -- 94
2019-01-20 18:00:00 0.2 9 Norte 36 Norte 0 -- -- 94
2019-01-20 17:00:00 0.6 13 Norte 31 Norte 0.4 -- -- 93
2019-01-20 16:00:00 1.1 15 Norte 41 Noroeste 0 -- -- 88
2019-01-20 15:00:00 1.7 13 Norte 36 Norte 0 -- -- 87
2019-01-20 14:00:00 1.3 14 Norte 27 Norte 0.4 -- -- 88
2019-01-20 13:00:00 2.3 17 Norte 33 Norte 2 -- -- 83
2019-01-20 12:00:00 1.7 12 Norte 38 Norte 1.6 -- -- 87
2019-01-20 11:00:00 0.6 16 Norte 37 Norte 0.4 -- -- 91
2019-01-20 10:00:00 0.4 9 Norte 46 Norte 0.4 -- -- 90
2019-01-20 09:00:00 1 30 Norte 50 Norte 0.2 -- -- 88
2019-01-20 08:00:00 0.7 19 Norte 44 Norte 0 -- -- 94
2019-01-20 07:00:00 0.5 24 Norte 46 Norte 0 -- -- 95
2019-01-20 06:00:00 0.5 21 Norte 36 Norte 0 -- -- 95
2019-01-20 05:00:00 0.4 21 Norte 33 Norte 0 -- -- 96
2019-01-20 04:00:00 0.4 8 Norte 22 Norte 0 -- -- 97
2019-01-20 03:00:00 -1 0 Calma -- -- 0 -- -- 97
2019-01-20 02:00:00 -1 0 Calma -- -- 0 -- -- 97
2019-01-20 01:00:00 -0.9 0 Calma -- -- 0 -- -- 97
2019-01-20 00:00:00 -0.9 0 Calma -- -- 0 -- -- 98
2019-01-19 23:00:00 -0.9 0 Calma -- -- 0 -- -- 97
2019-01-19 22:00:00 -1 0 Calma -- -- 0 -- -- 97
2019-01-19 21:00:00 -0.9 0 Calma 9 Sur 0 -- -- 97
2019-01-19 20:00:00 -0.7 8 Sur 17 Sudeste 0 -- -- 97
2019-01-19 19:00:00 -0.4 10 Sur 21 Sudeste 0 -- -- 97
2019-01-19 18:00:00 -0.1 10 Sur 24 Sudeste 0 -- -- 96
2019-01-19 17:00:00 0.4 13 Sur 25 Sudeste 0.2 -- -- 94
2019-01-19 16:00:00 1.4 16 Sudeste 28 Sudeste 0 -- -- 91
2019-01-19 15:00:00 1.4 13 Sur 26 Sur 0 -- -- 91
2019-01-19 14:00:00 0.6 9 Sur 17 Sudeste 0 -- -- 94
2019-01-19 13:00:00 -0.3 6 Sudeste 9 Sudeste 0 -- -- 91
2019-01-19 12:00:00 -0.8 0 Calma 6 Sudoeste 0.2 -- -- 92
2019-01-19 11:00:00 -1.8 0 Calma 7 Sudeste 0 -- -- 95
2019-01-19 10:00:00 -2.3 2 Sudoeste 6 Sudoeste 0 -- -- 95
2019-01-19 09:00:00 -2.5 2 Sur 5 Este 0 -- -- 95
2019-01-19 08:00:00 -2.6 0 Calma 4 Sudoeste 0 -- -- 95
2019-01-19 07:00:00 -3.3 2 Sudeste 4 Sudeste 0 -- -- 95
2019-01-19 06:00:00 -4 0 Calma 6 Nordeste 0 -- -- 94
2019-01-19 05:00:00 -4.6 3 Norte 8 Norte 0 -- -- 94
2019-01-19 04:00:00 -4.8 4 Norte 6 Norte 0 -- -- 94
2019-01-19 03:00:00 -4.4 0 Calma 3 Norte 0 -- -- 92
2019-01-19 02:00:00 -3.7 0 Calma 4 Oeste 0 -- -- 92
2019-01-19 01:00:00 -3.5 0 Calma 7 Noroeste 0 -- -- 93
2019-01-19 00:00:00 -3.6 2 Norte 5 Norte 0 -- -- 91